sensor_id;sensor_type;location;lat;lon;timestamp;temperature;humidity
51579;DHT22;47998;53.242;6.386;2022-08-03T00:01:27;17.60;95.30
51579;DHT22;47998;53.242;6.386;2022-08-03T00:03:53;17.50;50.20
51579;DHT22;47998;53.242;6.386;2022-08-03T00:06:19;17.50;4.20
51579;DHT22;47998;53.242;6.386;2022-08-03T00:08:44;17.50;49.40
51579;DHT22;47998;53.242;6.386;2022-08-03T00:11:10;17.50;56.00
51579;DHT22;47998;53.242;6.386;2022-08-03T00:13:36;17.50;99.90
51579;DHT22;47998;53.242;6.386;2022-08-03T00:16:02;17.60;99.90
51579;DHT22;47998;53.242;6.386;2022-08-03T00:18:28;17.50;99.90
51579;DHT22;47998;53.242;6.386;2022-08-03T00:20:53;17.50;99.90
51579;DHT22;47998;53.242;6.386;2022-08-03T00:23:19;17.50;99.90
51579;DHT22;47998;53.242;6.386;2022-08-03T00:25:45;17.50;99.90
51579;DHT22;47998;53.242;6.386;2022-08-03T00:28:10;17.50;99.90
51579;DHT22;47998;53.242;6.386;2022-08-03T00:30:36;17.50;99.90
51579;DHT22;47998;53.242;6.386;2022-08-03T00:33:02;17.50;99.90
51579;DHT22;47998;53.242;6.386;2022-08-03T00:35:28;17.60;99.90
51579;DHT22;47998;53.242;6.386;2022-08-03T00:37:54;17.50;99.90
51579;DHT22;47998;53.242;6.386;2022-08-03T00:40:20;17.50;99.90
51579;DHT22;47998;53.242;6.386;2022-08-03T00:42:51;17.50;99.90
51579;DHT22;47998;53.242;6.386;2022-08-03T00:45:23;17.50;99.90
51579;DHT22;47998;53.242;6.386;2022-08-03T00:47:49;17.50;99.90
51579;DHT22;47998;53.242;6.386;2022-08-03T00:50:16;17.50;99.90
51579;DHT22;47998;53.242;6.386;2022-08-03T00:52:42;17.50;99.90
51579;DHT22;47998;53.242;6.386;2022-08-03T00:55:09;17.60;99.90
51579;DHT22;47998;53.242;6.386;2022-08-03T00:57:35;17.50;99.90
51579;DHT22;47998;53.242;6.386;2022-08-03T01:00:02;17.50;99.90
51579;DHT22;47998;53.242;6.386;2022-08-03T01:02:28;17.50;99.90
51579;DHT22;47998;53.242;6.386;2022-08-03T01:04:54;17.50;99.90
51579;DHT22;47998;53.242;6.386;2022-08-03T01:16:22;17.40;99.90
51579;DHT22;47998;53.242;6.386;2022-08-03T01:22:11;17.30;99.90
51579;DHT22;47998;53.242;6.386;2022-08-03T01:27:17;17.30;99.90
51579;DHT22;47998;53.242;6.386;2022-08-03T01:30:07;17.20;99.90
51579;DHT22;47998;53.242;6.386;2022-08-03T01:32:38;17.30;99.90
51579;DHT22;47998;53.242;6.386;2022-08-03T01:35:12;17.30;99.90
51579;DHT22;47998;53.242;6.386;2022-08-03T01:37:47;17.40;99.90
51579;DHT22;47998;53.242;6.386;2022-08-03T01:40:15;17.40;99.90
51579;DHT22;47998;53.242;6.386;2022-08-03T01:42:43;17.40;99.90
51579;DHT22;47998;53.242;6.386;2022-08-03T01:45:11;17.50;99.90
51579;DHT22;47998;53.242;6.386;2022-08-03T01:47:39;17.50;99.90
51579;DHT22;47998;53.242;6.386;2022-08-03T01:50:06;17.50;99.90
51579;DHT22;47998;53.242;6.386;2022-08-03T01:52:34;17.50;99.90
51579;DHT22;47998;53.242;6.386;2022-08-03T01:55:02;17.40;99.90
51579;DHT22;47998;53.242;6.386;2022-08-03T01:57:30;17.40;99.90
51579;DHT22;47998;53.242;6.386;2022-08-03T01:59:56;17.40;99.90
51579;DHT22;47998;53.242;6.386;2022-08-03T02:02:25;17.30;99.90
51579;DHT22;47998;53.242;6.386;2022-08-03T02:04:53;17.30;98.60
51579;DHT22;47998;53.242;6.386;2022-08-03T02:07:20;17.30;98.30
51579;DHT22;47998;53.242;6.386;2022-08-03T02:09:49;17.30;99.90
51579;DHT22;47998;53.242;6.386;2022-08-03T02:12:15;17.30;99.90
51579;DHT22;47998;53.242;6.386;2022-08-03T02:14:43;17.20;99.90
51579;DHT22;47998;53.242;6.386;2022-08-03T02:17:11;17.20;95.80
51579;DHT22;47998;53.242;6.386;2022-08-03T02:19:39;17.10;98.00
51579;DHT22;47998;53.242;6.386;2022-08-03T02:22:10;17.10;99.90
51579;DHT22;47998;53.242;6.386;2022-08-03T02:24:36;17.10;99.90
51579;DHT22;47998;53.242;6.386;2022-08-03T02:27:05;17.00;99.90
51579;DHT22;47998;53.242;6.386;2022-08-03T02:29:33;17.00;99.90
51579;DHT22;47998;53.242;6.386;2022-08-03T02:32:01;17.00;99.90
51579;DHT22;47998;53.242;6.386;2022-08-03T02:34:30;17.00;99.90
51579;DHT22;47998;53.242;6.386;2022-08-03T02:36:58;17.00;99.90
51579;DHT22;47998;53.242;6.386;2022-08-03T02:39:31;16.90;99.90
51579;DHT22;47998;53.242;6.386;2022-08-03T02:41:59;16.90;99.90
51579;DHT22;47998;53.242;6.386;2022-08-03T02:44:31;16.90;99.90
51579;DHT22;47998;53.242;6.386;2022-08-03T02:47:02;16.90;99.90
51579;DHT22;47998;53.242;6.386;2022-08-03T02:49:30;16.90;99.90
51579;DHT22;47998;53.242;6.386;2022-08-03T02:51:57;16.90;99.90
51579;DHT22;47998;53.242;6.386;2022-08-03T02:54:25;17.00;99.90
51579;DHT22;47998;53.242;6.386;2022-08-03T02:56:53;16.90;99.90
51579;DHT22;47998;53.242;6.386;2022-08-03T02:59:19;16.90;99.90
51579;DHT22;47998;53.242;6.386;2022-08-03T03:01:45;17.00;99.90
51579;DHT22;47998;53.242;6.386;2022-08-03T03:04:12;17.00;99.90
51579;DHT22;47998;53.242;6.386;2022-08-03T03:06:39;17.00;99.90
51579;DHT22;47998;53.242;6.386;2022-08-03T03:09:06;17.00;99.90
51579;DHT22;47998;53.242;6.386;2022-08-03T03:11:35;17.00;99.90
51579;DHT22;47998;53.242;6.386;2022-08-03T03:14:02;17.00;99.90
51579;DHT22;47998;53.242;6.386;2022-08-03T03:16:29;17.00;99.90
51579;DHT22;47998;53.242;6.386;2022-08-03T03:18:56;17.00;99.90
51579;DHT22;47998;53.242;6.386;2022-08-03T03:21:23;16.90;99.90
51579;DHT22;47998;53.242;6.386;2022-08-03T03:23:50;16.90;99.90
51579;DHT22;47998;53.242;6.386;2022-08-03T03:26:16;16.90;99.90
51579;DHT22;47998;53.242;6.386;2022-08-03T03:28:43;16.90;99.90
51579;DHT22;47998;53.242;6.386;2022-08-03T03:31:09;16.80;99.90
51579;DHT22;47998;53.242;6.386;2022-08-03T03:33:35;16.80;99.90
51579;DHT22;47998;53.242;6.386;2022-08-03T03:36:03;16.80;99.90
51579;DHT22;47998;53.242;6.386;2022-08-03T03:38:29;16.80;99.90
51579;DHT22;47998;53.242;6.386;2022-08-03T03:40:56;16.80;99.90
51579;DHT22;47998;53.242;6.386;2022-08-03T03:43:23;16.80;99.90
51579;DHT22;47998;53.242;6.386;2022-08-03T03:45:50;16.90;99.90
51579;DHT22;47998;53.242;6.386;2022-08-03T03:48:17;16.90;99.90
51579;DHT22;47998;53.242;6.386;2022-08-03T03:50:43;16.90;99.90
51579;DHT22;47998;53.242;6.386;2022-08-03T03:53:11;16.90;99.90
51579;DHT22;47998;53.242;6.386;2022-08-03T03:55:37;17.00;99.90
51579;DHT22;47998;53.242;6.386;2022-08-03T03:58:03;17.10;99.90
51579;DHT22;47998;53.242;6.386;2022-08-03T04:00:29;17.00;99.90
51579;DHT22;47998;53.242;6.386;2022-08-03T04:02:55;17.00;99.90
51579;DHT22;47998;53.242;6.386;2022-08-03T04:05:21;17.10;99.90
51579;DHT22;47998;53.242;6.386;2022-08-03T04:08:09;17.00;99.90
51579;DHT22;47998;53.242;6.386;2022-08-03T04:11:21;17.00;99.90
51579;DHT22;47998;53.242;6.386;2022-08-03T04:17:04;17.00;99.90
51579;DHT22;47998;53.242;6.386;2022-08-03T04:19:39;17.00;99.90
51579;DHT22;47998;53.242;6.386;2022-08-03T04:22:12;17.00;99.90
51579;DHT22;47998;53.242;6.386;2022-08-03T04:24:42;17.00;99.90
51579;DHT22;47998;53.242;6.386;2022-08-03T04:27:11;17.10;99.90
51579;DHT22;47998;53.242;6.386;2022-08-03T04:29:40;17.10;99.90
51579;DHT22;47998;53.242;6.386;2022-08-03T04:32:08;17.20;99.90
51579;DHT22;47998;53.242;6.386;2022-08-03T04:34:34;17.20;99.90
51579;DHT22;47998;53.242;6.386;2022-08-03T04:37:03;17.30;99.90
51579;DHT22;47998;53.242;6.386;2022-08-03T04:39:31;17.30;99.90
51579;DHT22;47998;53.242;6.386;2022-08-03T04:42:00;17.40;99.90
51579;DHT22;47998;53.242;6.386;2022-08-03T04:44:28;17.40;99.90
51579;DHT22;47998;53.242;6.386;2022-08-03T04:46:55;17.50;99.90
51579;DHT22;47998;53.242;6.386;2022-08-03T04:49:22;17.50;99.90
51579;DHT22;47998;53.242;6.386;2022-08-03T04:51:49;17.60;99.90
51579;DHT22;47998;53.242;6.386;2022-08-03T04:54:15;17.60;99.90
51579;DHT22;47998;53.242;6.386;2022-08-03T04:56:41;17.70;99.90
51579;DHT22;47998;53.242;6.386;2022-08-03T04:59:08;17.70;99.90
51579;DHT22;47998;53.242;6.386;2022-08-03T05:01:34;17.80;99.90
51579;DHT22;47998;53.242;6.386;2022-08-03T05:04:00;17.90;99.90
51579;DHT22;47998;53.242;6.386;2022-08-03T05:06:25;17.80;99.90
51579;DHT22;47998;53.242;6.386;2022-08-03T05:08:51;17.90;99.90
51579;DHT22;47998;53.242;6.386;2022-08-03T05:11:17;18.00;99.90
51579;DHT22;47998;53.242;6.386;2022-08-03T05:13:44;18.10;99.90
51579;DHT22;47998;53.242;6.386;2022-08-03T05:16:11;18.10;99.90
51579;DHT22;47998;53.242;6.386;2022-08-03T05:18:39;18.10;99.90
51579;DHT22;47998;53.242;6.386;2022-08-03T05:21:04;18.20;99.90
51579;DHT22;47998;53.242;6.386;2022-08-03T05:23:30;18.20;99.90
51579;DHT22;47998;53.242;6.386;2022-08-03T05:25:56;18.30;99.90
51579;DHT22;47998;53.242;6.386;2022-08-03T05:28:22;18.30;99.90
51579;DHT22;47998;53.242;6.386;2022-08-03T05:30:47;18.40;99.90
51579;DHT22;47998;53.242;6.386;2022-08-03T05:33:13;18.40;99.90
51579;DHT22;47998;53.242;6.386;2022-08-03T05:35:39;18.50;91.40
51579;DHT22;47998;53.242;6.386;2022-08-03T05:38:05;18.50;71.90
51579;DHT22;47998;53.242;6.386;2022-08-03T05:40:31;18.60;44.20
51579;DHT22;47998;53.242;6.386;2022-08-03T05:42:57;18.60;27.20
51579;DHT22;47998;53.242;6.386;2022-08-03T05:45:24;18.70;14.10
51579;DHT22;47998;53.242;6.386;2022-08-03T05:47:49;19.10;52.60
51579;DHT22;47998;53.242;6.386;2022-08-03T05:50:17;19.90;13.20
51579;DHT22;47998;53.242;6.386;2022-08-03T05:52:43;20.40;99.90
51579;DHT22;47998;53.242;6.386;2022-08-03T05:55:09;20.80;36.70
51579;DHT22;47998;53.242;6.386;2022-08-03T05:57:36;21.10;99.90
51579;DHT22;47998;53.242;6.386;2022-08-03T06:00:11;21.30;99.90
51579;DHT22;47998;53.242;6.386;2022-08-03T06:02:37;21.50;99.90
51579;DHT22;47998;53.242;6.386;2022-08-03T06:05:03;21.70;1.00
51579;DHT22;47998;53.242;6.386;2022-08-03T06:07:29;21.80;99.90
51579;DHT22;47998;53.242;6.386;2022-08-03T06:09:55;21.70;99.90
51579;DHT22;47998;53.242;6.386;2022-08-03T06:12:20;21.80;99.90
51579;DHT22;47998;53.242;6.386;2022-08-03T06:14:46;22.00;99.90
51579;DHT22;47998;53.242;6.386;2022-08-03T06:17:12;21.90;99.90
51579;DHT22;47998;53.242;6.386;2022-08-03T06:19:37;21.90;99.90
51579;DHT22;47998;53.242;6.386;2022-08-03T06:22:03;21.80;99.90
51579;DHT22;47998;53.242;6.386;2022-08-03T06:24:29;21.70;99.90
51579;DHT22;47998;53.242;6.386;2022-08-03T06:26:55;21.70;99.90
51579;DHT22;47998;53.242;6.386;2022-08-03T06:29:21;21.70;99.90
51579;DHT22;47998;53.242;6.386;2022-08-03T06:31:46;21.50;99.90
51579;DHT22;47998;53.242;6.386;2022-08-03T06:34:12;21.50;1.00
51579;DHT22;47998;53.242;6.386;2022-08-03T06:36:38;21.40;1.00
51579;DHT22;47998;53.242;6.386;2022-08-03T06:39:04;21.30;1.00
51579;DHT22;47998;53.242;6.386;2022-08-03T06:41:29;21.10;99.50
51579;DHT22;47998;53.242;6.386;2022-08-03T06:43:55;21.10;99.90
51579;DHT22;47998;53.242;6.386;2022-08-03T06:46:21;21.00;99.90
51579;DHT22;47998;53.242;6.386;2022-08-03T06:48:47;21.10;1.00
51579;DHT22;47998;53.242;6.386;2022-08-03T06:51:13;21.00;99.90
51579;DHT22;47998;53.242;6.386;2022-08-03T06:53:39;21.00;1.00
51579;DHT22;47998;53.242;6.386;2022-08-03T06:56:05;21.00;1.00
51579;DHT22;47998;53.242;6.386;2022-08-03T06:58:31;21.00;1.00
51579;DHT22;47998;53.242;6.386;2022-08-03T07:00:57;20.90;99.90
51579;DHT22;47998;53.242;6.386;2022-08-03T07:03:22;20.90;1.00
51579;DHT22;47998;53.242;6.386;2022-08-03T07:05:48;21.00;1.00
51579;DHT22;47998;53.242;6.386;2022-08-03T07:08:16;21.10;1.00
51579;DHT22;47998;53.242;6.386;2022-08-03T07:10:45;21.10;1.00
51579;DHT22;47998;53.242;6.386;2022-08-03T07:13:11;21.20;1.00
51579;DHT22;47998;53.242;6.386;2022-08-03T07:15:38;21.20;1.00
51579;DHT22;47998;53.242;6.386;2022-08-03T07:18:04;21.20;99.90
51579;DHT22;47998;53.242;6.386;2022-08-03T07:20:31;21.30;99.90
51579;DHT22;47998;53.242;6.386;2022-08-03T07:22:57;21.30;99.90
51579;DHT22;47998;53.242;6.386;2022-08-03T07:25:23;21.40;99.90
51579;DHT22;47998;53.242;6.386;2022-08-03T07:27:48;21.50;99.90
51579;DHT22;47998;53.242;6.386;2022-08-03T07:30:14;21.60;99.90
51579;DHT22;47998;53.242;6.386;2022-08-03T07:32:40;21.60;99.90
51579;DHT22;47998;53.242;6.386;2022-08-03T07:35:07;21.60;99.90
51579;DHT22;47998;53.242;6.386;2022-08-03T07:37:33;21.70;99.90
51579;DHT22;47998;53.242;6.386;2022-08-03T07:40:00;21.90;99.90
51579;DHT22;47998;53.242;6.386;2022-08-03T07:42:29;22.00;99.90
51579;DHT22;47998;53.242;6.386;2022-08-03T07:44:55;22.00;77.90
51579;DHT22;47998;53.242;6.386;2022-08-03T07:47:23;22.00;2.50
51579;DHT22;47998;53.242;6.386;2022-08-03T07:49:49;22.10;78.20
51579;DHT22;47998;53.242;6.386;2022-08-03T07:52:15;22.20;86.20
51579;DHT22;47998;53.242;6.386;2022-08-03T07:54:59;22.40;99.90
51579;DHT22;47998;53.242;6.386;2022-08-03T07:57:25;22.60;43.00
51579;DHT22;47998;53.242;6.386;2022-08-03T07:59:50;22.70;1.00
51579;DHT22;47998;53.242;6.386;2022-08-03T08:02:16;22.80;1.00
51579;DHT22;47998;53.242;6.386;2022-08-03T08:04:42;22.70;99.90
51579;DHT22;47998;53.242;6.386;2022-08-03T08:07:07;22.90;1.00
51579;DHT22;47998;53.242;6.386;2022-08-03T08:09:33;23.00;1.00
51579;DHT22;47998;53.242;6.386;2022-08-03T08:11:59;23.00;99.90
51579;DHT22;47998;53.242;6.386;2022-08-03T08:14:25;23.00;99.90
51579;DHT22;47998;53.242;6.386;2022-08-03T08:16:51;23.00;99.90
51579;DHT22;47998;53.242;6.386;2022-08-03T08:19:16;23.10;99.90
51579;DHT22;47998;53.242;6.386;2022-08-03T08:21:43;23.20;99.90
51579;DHT22;47998;53.242;6.386;2022-08-03T08:24:09;23.30;99.90
51579;DHT22;47998;53.242;6.386;2022-08-03T08:26:35;23.40;99.90
51579;DHT22;47998;53.242;6.386;2022-08-03T08:29:01;23.50;99.90
51579;DHT22;47998;53.242;6.386;2022-08-03T08:31:27;23.40;1.00
51579;DHT22;47998;53.242;6.386;2022-08-03T08:33:53;23.20;1.00
51579;DHT22;47998;53.242;6.386;2022-08-03T08:36:19;23.30;99.90
51579;DHT22;47998;53.242;6.386;2022-08-03T08:38:44;23.50;99.90
51579;DHT22;47998;53.242;6.386;2022-08-03T08:41:11;23.60;26.60
51579;DHT22;47998;53.242;6.386;2022-08-03T08:43:37;23.60;21.80
51579;DHT22;47998;53.242;6.386;2022-08-03T08:46:04;23.70;39.80
51579;DHT22;47998;53.242;6.386;2022-08-03T08:48:32;23.80;1.00
51579;DHT22;47998;53.242;6.386;2022-08-03T08:51:01;23.50;1.00
51579;DHT22;47998;53.242;6.386;2022-08-03T08:53:28;23.60;1.00
51579;DHT22;47998;53.242;6.386;2022-08-03T08:55:58;23.70;1.00
51579;DHT22;47998;53.242;6.386;2022-08-03T08:58:35;23.80;1.00
51579;DHT22;47998;53.242;6.386;2022-08-03T09:01:02;24.00;1.00
51579;DHT22;47998;53.242;6.386;2022-08-03T09:03:28;24.00;1.00
51579;DHT22;47998;53.242;6.386;2022-08-03T09:05:54;24.10;1.00
51579;DHT22;47998;53.242;6.386;2022-08-03T09:08:20;24.30;1.00
51579;DHT22;47998;53.242;6.386;2022-08-03T09:10:47;24.70;99.90
51579;DHT22;47998;53.242;6.386;2022-08-03T09:13:13;25.50;99.90
51579;DHT22;47998;53.242;6.386;2022-08-03T09:15:39;26.10;1.00
51579;DHT22;47998;53.242;6.386;2022-08-03T09:18:06;26.40;99.90
51579;DHT22;47998;53.242;6.386;2022-08-03T09:20:34;26.60;99.90
51579;DHT22;47998;53.242;6.386;2022-08-03T09:23:06;26.40;99.90
51579;DHT22;47998;53.242;6.386;2022-08-03T09:25:38;26.40;99.90
51579;DHT22;47998;53.242;6.386;2022-08-03T09:30:37;26.20;99.90
51579;DHT22;47998;53.242;6.386;2022-08-03T09:33:05;26.30;1.00
51579;DHT22;47998;53.242;6.386;2022-08-03T09:35:31;26.50;99.90
51579;DHT22;47998;53.242;6.386;2022-08-03T09:38:14;26.70;99.90
51579;DHT22;47998;53.242;6.386;2022-08-03T09:40:41;26.30;99.90
51579;DHT22;47998;53.242;6.386;2022-08-03T09:43:08;26.30;99.90
51579;DHT22;47998;53.242;6.386;2022-08-03T09:45:35;26.50;99.90
51579;DHT22;47998;53.242;6.386;2022-08-03T09:48:20;26.80;99.90
51579;DHT22;47998;53.242;6.386;2022-08-03T09:51:05;26.50;99.90
51579;DHT22;47998;53.242;6.386;2022-08-03T09:53:44;26.40;99.90
51579;DHT22;47998;53.242;6.386;2022-08-03T09:56:10;26.70;99.90
51579;DHT22;47998;53.242;6.386;2022-08-03T09:58:44;27.20;99.90
51579;DHT22;47998;53.242;6.386;2022-08-03T10:01:11;27.60;67.90
51579;DHT22;47998;53.242;6.386;2022-08-03T10:03:39;27.60;16.30
51579;DHT22;47998;53.242;6.386;2022-08-03T10:06:18;27.80;1.00
51579;DHT22;47998;53.242;6.386;2022-08-03T10:09:10;28.20;99.90
51579;DHT22;47998;53.242;6.386;2022-08-03T10:11:37;28.20;99.90
51579;DHT22;47998;53.242;6.386;2022-08-03T10:14:05;27.80;99.90
51579;DHT22;47998;53.242;6.386;2022-08-03T10:16:39;27.80;1.00
51579;DHT22;47998;53.242;6.386;2022-08-03T10:19:06;28.40;1.00
51579;DHT22;47998;53.242;6.386;2022-08-03T10:21:36;28.30;99.90
51579;DHT22;47998;53.242;6.386;2022-08-03T10:24:06;28.20;99.90
51579;DHT22;47998;53.242;6.386;2022-08-03T10:26:34;27.70;99.90
51579;DHT22;47998;53.242;6.386;2022-08-03T10:29:03;27.90;99.90
51579;DHT22;47998;53.242;6.386;2022-08-03T10:31:43;27.70;99.90
51579;DHT22;47998;53.242;6.386;2022-08-03T10:34:22;27.70;99.90
51579;DHT22;47998;53.242;6.386;2022-08-03T10:36:49;28.10;99.90
51579;DHT22;47998;53.242;6.386;2022-08-03T10:39:20;28.10;99.90
51579;DHT22;47998;53.242;6.386;2022-08-03T10:41:47;28.30;99.90
51579;DHT22;47998;53.242;6.386;2022-08-03T10:44:23;28.60;99.90
51579;DHT22;47998;53.242;6.386;2022-08-03T10:46:50;28.70;13.10
51579;DHT22;47998;53.242;6.386;2022-08-03T10:49:17;28.50;99.90
51579;DHT22;47998;53.242;6.386;2022-08-03T10:51:44;28.30;37.10
51579;DHT22;47998;53.242;6.386;2022-08-03T10:54:42;28.20;99.90
51579;DHT22;47998;53.242;6.386;2022-08-03T11:00:18;28.20;94.30
51579;DHT22;47998;53.242;6.386;2022-08-03T11:03:03;28.20;99.90
51579;DHT22;47998;53.242;6.386;2022-08-03T11:05:36;28.20;1.00
51579;DHT22;47998;53.242;6.386;2022-08-03T11:08:23;28.30;1.00
51579;DHT22;47998;53.242;6.386;2022-08-03T11:10:51;28.40;20.10
51579;DHT22;47998;53.242;6.386;2022-08-03T11:13:19;28.20;99.90
51579;DHT22;47998;53.242;6.386;2022-08-03T11:15:48;27.90;18.90
51579;DHT22;47998;53.242;6.386;2022-08-03T11:18:15;28.00;99.90
51579;DHT22;47998;53.242;6.386;2022-08-03T11:23:11;28.00;1.00
51579;DHT22;47998;53.242;6.386;2022-08-03T11:26:08;27.90;41.30
51579;DHT22;47998;53.242;6.386;2022-08-03T11:28:34;28.00;99.90
51579;DHT22;47998;53.242;6.386;2022-08-03T11:34:08;28.00;1.00
51579;DHT22;47998;53.242;6.386;2022-08-03T11:39:45;27.90;1.00
51579;DHT22;47998;53.242;6.386;2022-08-03T11:44:49;28.20;99.90
51579;DHT22;47998;53.242;6.386;2022-08-03T11:47:16;28.30;99.90
51579;DHT22;47998;53.242;6.386;2022-08-03T11:49:50;28.80;28.30
51579;DHT22;47998;53.242;6.386;2022-08-03T11:52:17;28.80;1.00
51579;DHT22;47998;53.242;6.386;2022-08-03T11:54:44;28.60;99.90
51579;DHT22;47998;53.242;6.386;2022-08-03T11:57:10;28.50;1.00
51579;DHT22;47998;53.242;6.386;2022-08-03T11:59:36;28.20;1.00
51579;DHT22;47998;53.242;6.386;2022-08-03T12:02:11;27.90;26.60
51579;DHT22;47998;53.242;6.386;2022-08-03T12:04:55;27.70;11.40
51579;DHT22;47998;53.242;6.386;2022-08-03T12:07:29;27.90;1.00
51579;DHT22;47998;53.242;6.386;2022-08-03T12:10:24;28.30;99.90
51579;DHT22;47998;53.242;6.386;2022-08-03T12:12:57;27.90;1.00
51579;DHT22;47998;53.242;6.386;2022-08-03T12:15:30;28.10;99.90
51579;DHT22;47998;53.242;6.386;2022-08-03T12:17:58;28.20;99.90
51579;DHT22;47998;53.242;6.386;2022-08-03T12:20:30;28.00;74.00
51579;DHT22;47998;53.242;6.386;2022-08-03T12:23:04;28.20;99.90
51579;DHT22;47998;53.242;6.386;2022-08-03T12:25:32;28.50;99.90
51579;DHT22;47998;53.242;6.386;2022-08-03T12:30:49;28.50;1.00
51579;DHT22;47998;53.242;6.386;2022-08-03T12:33:23;28.30;30.00
51579;DHT22;47998;53.242;6.386;2022-08-03T12:36:10;28.10;1.00
51579;DHT22;47998;53.242;6.386;2022-08-03T12:38:37;27.90;1.00
51579;DHT22;47998;53.242;6.386;2022-08-03T12:41:05;27.90;1.00
51579;DHT22;47998;53.242;6.386;2022-08-03T12:43:34;28.20;1.00
51579;DHT22;47998;53.242;6.386;2022-08-03T12:46:13;28.00;1.00
51579;DHT22;47998;53.242;6.386;2022-08-03T12:49:06;28.20;1.00
51579;DHT22;47998;53.242;6.386;2022-08-03T12:51:54;28.50;1.00
51579;DHT22;47998;53.242;6.386;2022-08-03T12:54:24;28.40;99.90
51579;DHT22;47998;53.242;6.386;2022-08-03T12:57:00;27.80;99.90
51579;DHT22;47998;53.242;6.386;2022-08-03T12:59:36;27.70;99.90
51579;DHT22;47998;53.242;6.386;2022-08-03T13:02:03;27.90;99.90
51579;DHT22;47998;53.242;6.386;2022-08-03T13:04:31;28.10;99.90
51579;DHT22;47998;53.242;6.386;2022-08-03T13:07:02;27.80;98.70
51579;DHT22;47998;53.242;6.386;2022-08-03T13:09:29;28.00;99.90
51579;DHT22;47998;53.242;6.386;2022-08-03T13:12:11;28.10;99.90
51579;DHT22;47998;53.242;6.386;2022-08-03T13:14:37;28.00;72.80
51579;DHT22;47998;53.242;6.386;2022-08-03T13:17:04;27.60;99.90
51579;DHT22;47998;53.242;6.386;2022-08-03T13:19:35;27.70;99.90
51579;DHT22;47998;53.242;6.386;2022-08-03T13:22:13;27.80;99.90
51579;DHT22;47998;53.242;6.386;2022-08-03T13:24:40;27.90;14.40
51579;DHT22;47998;53.242;6.386;2022-08-03T13:27:06;28.20;99.90
51579;DHT22;47998;53.242;6.386;2022-08-03T13:29:33;28.40;99.90
51579;DHT22;47998;53.242;6.386;2022-08-03T13:31:59;28.50;63.00
51579;DHT22;47998;53.242;6.386;2022-08-03T13:34:25;28.40;76.70
51579;DHT22;47998;53.242;6.386;2022-08-03T13:36:51;28.40;1.00
51579;DHT22;47998;53.242;6.386;2022-08-03T13:39:17;28.20;99.90
51579;DHT22;47998;53.242;6.386;2022-08-03T13:41:44;28.10;99.90
51579;DHT22;47998;53.242;6.386;2022-08-03T13:44:11;28.20;99.90
51579;DHT22;47998;53.242;6.386;2022-08-03T13:46:36;28.10;59.00
51579;DHT22;47998;53.242;6.386;2022-08-03T13:49:02;28.10;69.00
51579;DHT22;47998;53.242;6.386;2022-08-03T13:51:28;27.90;1.00
51579;DHT22;47998;53.242;6.386;2022-08-03T13:53:54;27.70;1.00
51579;DHT22;47998;53.242;6.386;2022-08-03T13:56:19;27.40;99.90
51579;DHT22;47998;53.242;6.386;2022-08-03T13:58:45;27.00;59.90
51579;DHT22;47998;53.242;6.386;2022-08-03T14:01:11;26.70;38.00
51579;DHT22;47998;53.242;6.386;2022-08-03T14:03:37;26.50;99.90
51579;DHT22;47998;53.242;6.386;2022-08-03T14:06:03;26.30;99.90
51579;DHT22;47998;53.242;6.386;2022-08-03T14:08:29;26.30;99.90
51579;DHT22;47998;53.242;6.386;2022-08-03T14:10:54;26.30;1.00
51579;DHT22;47998;53.242;6.386;2022-08-03T14:13:20;26.30;1.00
51579;DHT22;47998;53.242;6.386;2022-08-03T14:15:47;26.00;1.00
51579;DHT22;47998;53.242;6.386;2022-08-03T14:18:13;26.00;99.90
51579;DHT22;47998;53.242;6.386;2022-08-03T14:20:38;26.10;1.00
51579;DHT22;47998;53.242;6.386;2022-08-03T14:23:05;26.00;99.90
51579;DHT22;47998;53.242;6.386;2022-08-03T14:25:31;25.80;99.90
51579;DHT22;47998;53.242;6.386;2022-08-03T14:27:56;25.40;99.90
51579;DHT22;47998;53.242;6.386;2022-08-03T14:30:22;23.90;1.00
51579;DHT22;47998;53.242;6.386;2022-08-03T14:32:48;23.60;99.90
51579;DHT22;47998;53.242;6.386;2022-08-03T14:35:13;23.30;99.90
51579;DHT22;47998;53.242;6.386;2022-08-03T14:37:39;23.20;99.90
51579;DHT22;47998;53.242;6.386;2022-08-03T14:40:05;23.20;99.90
51579;DHT22;47998;53.242;6.386;2022-08-03T14:42:31;23.50;1.00
51579;DHT22;47998;53.242;6.386;2022-08-03T14:44:57;23.60;1.00
51579;DHT22;47998;53.242;6.386;2022-08-03T14:47:23;23.40;99.90
51579;DHT22;47998;53.242;6.386;2022-08-03T14:49:48;23.20;99.90
51579;DHT22;47998;53.242;6.386;2022-08-03T14:52:14;23.20;1.00
51579;DHT22;47998;53.242;6.386;2022-08-03T14:54:40;23.40;1.00
51579;DHT22;47998;53.242;6.386;2022-08-03T14:57:06;23.50;99.90
51579;DHT22;47998;53.242;6.386;2022-08-03T14:59:31;23.80;1.00
51579;DHT22;47998;53.242;6.386;2022-08-03T15:01:57;24.30;1.00
51579;DHT22;47998;53.242;6.386;2022-08-03T15:04:23;24.60;1.00
51579;DHT22;47998;53.242;6.386;2022-08-03T15:06:48;25.10;1.00
51579;DHT22;47998;53.242;6.386;2022-08-03T15:09:14;25.40;99.90
51579;DHT22;47998;53.242;6.386;2022-08-03T15:11:40;25.80;1.00
51579;DHT22;47998;53.242;6.386;2022-08-03T15:14:06;26.10;1.00
51579;DHT22;47998;53.242;6.386;2022-08-03T15:16:31;26.30;1.00
51579;DHT22;47998;53.242;6.386;2022-08-03T15:18:57;26.00;1.00
51579;DHT22;47998;53.242;6.386;2022-08-03T15:21:23;26.10;99.90
51579;DHT22;47998;53.242;6.386;2022-08-03T15:23:49;26.20;99.90
51579;DHT22;47998;53.242;6.386;2022-08-03T15:26:14;26.30;99.90
51579;DHT22;47998;53.242;6.386;2022-08-03T15:28:40;26.30;95.50
51579;DHT22;47998;53.242;6.386;2022-08-03T15:31:06;26.20;99.90
51579;DHT22;47998;53.242;6.386;2022-08-03T15:33:31;26.20;1.00
51579;DHT22;47998;53.242;6.386;2022-08-03T15:35:57;26.20;99.90
51579;DHT22;47998;53.242;6.386;2022-08-03T15:38:24;26.20;99.90
51579;DHT22;47998;53.242;6.386;2022-08-03T15:40:50;26.30;1.00
51579;DHT22;47998;53.242;6.386;2022-08-03T15:43:19;26.10;1.00
51579;DHT22;47998;53.242;6.386;2022-08-03T15:45:45;25.90;1.00
51579;DHT22;47998;53.242;6.386;2022-08-03T15:48:11;25.80;99.90
51579;DHT22;47998;53.242;6.386;2022-08-03T15:50:36;26.00;1.00
51579;DHT22;47998;53.242;6.386;2022-08-03T15:53:02;25.90;1.00
51579;DHT22;47998;53.242;6.386;2022-08-03T15:55:28;25.70;99.90
51579;DHT22;47998;53.242;6.386;2022-08-03T15:57:55;25.70;99.90
51579;DHT22;47998;53.242;6.386;2022-08-03T16:00:21;25.80;99.90
51579;DHT22;47998;53.242;6.386;2022-08-03T16:02:47;25.70;1.00
51579;DHT22;47998;53.242;6.386;2022-08-03T16:05:12;26.00;1.00
51579;DHT22;47998;53.242;6.386;2022-08-03T16:07:38;26.20;99.90
51579;DHT22;47998;53.242;6.386;2022-08-03T16:10:15;26.10;1.00
51579;DHT22;47998;53.242;6.386;2022-08-03T16:12:41;25.90;99.90
51579;DHT22;47998;53.242;6.386;2022-08-03T16:15:08;25.80;1.00
51579;DHT22;47998;53.242;6.386;2022-08-03T16:17:34;26.00;99.90
51579;DHT22;47998;53.242;6.386;2022-08-03T16:19:59;26.40;99.90